sensor_id;sensor_type;location;lat;lon;timestamp;P1;durP1;ratioP1;P2;durP2;ratioP2
23346;SDS011;36852;45.466;11.066;2023-04-03T00:01:23;1.27;;;0.70;;
23346;SDS011;36852;45.466;11.066;2023-04-03T00:03:51;1.52;;;0.57;;
23346;SDS011;36852;45.466;11.066;2023-04-03T00:06:19;3.33;;;0.95;;
23346;SDS011;36852;45.466;11.066;2023-04-03T00:08:47;2.00;;;0.72;;
23346;SDS011;36852;45.466;11.066;2023-04-03T00:11:15;2.10;;;0.50;;
23346;SDS011;36852;45.466;11.066;2023-04-03T00:13:44;0.60;;;0.47;;
23346;SDS011;36852;45.466;11.066;2023-04-03T00:16:12;3.37;;;0.62;;
23346;SDS011;36852;45.466;11.066;2023-04-03T00:18:40;1.92;;;0.60;;
23346;SDS011;36852;45.466;11.066;2023-04-03T00:21:09;2.33;;;0.60;;
23346;SDS011;36852;45.466;11.066;2023-04-03T00:23:40;1.95;;;0.70;;
23346;SDS011;36852;45.466;11.066;2023-04-03T00:26:07;0.70;;;0.40;;
23346;SDS011;36852;45.466;11.066;2023-04-03T00:28:39;0.70;;;0.40;;
23346;SDS011;36852;45.466;11.066;2023-04-03T00:31:06;1.07;;;0.65;;
23346;SDS011;36852;45.466;11.066;2023-04-03T00:33:34;1.87;;;0.45;;
23346;SDS011;36852;45.466;11.066;2023-04-03T00:36:06;0.80;;;0.47;;
23346;SDS011;36852;45.466;11.066;2023-04-03T00:38:36;0.88;;;0.40;;
23346;SDS011;36852;45.466;11.066;2023-04-03T00:41:07;0.53;;;0.37;;
23346;SDS011;36852;45.466;11.066;2023-04-03T00:43:34;0.98;;;0.50;;
23346;SDS011;36852;45.466;11.066;2023-04-03T00:46:03;1.12;;;0.50;;
23346;SDS011;36852;45.466;11.066;2023-04-03T00:51:10;0.85;;;0.50;;
23346;SDS011;36852;45.466;11.066;2023-04-03T00:53:43;0.75;;;0.53;;
23346;SDS011;36852;45.466;11.066;2023-04-03T00:56:24;1.02;;;0.60;;
23346;SDS011;36852;45.466;11.066;2023-04-03T00:58:54;1.07;;;0.65;;
23346;SDS011;36852;45.466;11.066;2023-04-03T01:01:26;0.50;;;0.30;;
23346;SDS011;36852;45.466;11.066;2023-04-03T01:03:55;0.50;;;0.40;;
23346;SDS011;36852;45.466;11.066;2023-04-03T01:06:25;1.02;;;0.70;;
23346;SDS011;36852;45.466;11.066;2023-04-03T01:08:57;0.75;;;0.50;;
23346;SDS011;36852;45.466;11.066;2023-04-03T01:11:26;0.60;;;0.40;;
23346;SDS011;36852;45.466;11.066;2023-04-03T01:13:54;0.40;;;0.30;;
23346;SDS011;36852;45.466;11.066;2023-04-03T01:16:23;0.78;;;0.50;;
23346;SDS011;36852;45.466;11.066;2023-04-03T01:18:51;2.70;;;0.40;;
23346;SDS011;36852;45.466;11.066;2023-04-03T01:27:05;1.57;;;0.45;;
23346;SDS011;36852;45.466;11.066;2023-04-03T01:29:36;1.10;;;0.40;;
23346;SDS011;36852;45.466;11.066;2023-04-03T01:32:05;0.60;;;0.40;;
23346;SDS011;36852;45.466;11.066;2023-04-03T01:34:33;1.05;;;0.60;;
23346;SDS011;36852;45.466;11.066;2023-04-03T01:37:02;0.50;;;0.47;;
23346;SDS011;36852;45.466;11.066;2023-04-03T01:39:29;0.78;;;0.50;;
23346;SDS011;36852;45.466;11.066;2023-04-03T01:41:58;0.37;;;0.30;;
23346;SDS011;36852;45.466;11.066;2023-04-03T01:44:31;0.55;;;0.50;;
23346;SDS011;36852;45.466;11.066;2023-04-03T01:46:59;1.25;;;0.50;;
23346;SDS011;36852;45.466;11.066;2023-04-03T01:49:27;0.53;;;0.40;;
23346;SDS011;36852;45.466;11.066;2023-04-03T01:51:55;0.80;;;0.50;;
23346;SDS011;36852;45.466;11.066;2023-04-03T01:54:23;0.40;;;0.40;;
23346;SDS011;36852;45.466;11.066;2023-04-03T01:56:51;0.60;;;0.50;;
23346;SDS011;36852;45.466;11.066;2023-04-03T01:59:18;0.40;;;0.40;;
23346;SDS011;36852;45.466;11.066;2023-04-03T02:01:46;0.50;;;0.42;;
23346;SDS011;36852;45.466;11.066;2023-04-03T02:04:14;1.67;;;0.75;;
23346;SDS011;36852;45.466;11.066;2023-04-03T02:06:42;1.02;;;0.50;;
23346;SDS011;36852;45.466;11.066;2023-04-03T02:09:10;1.00;;;0.40;;
23346;SDS011;36852;45.466;11.066;2023-04-03T02:11:41;1.90;;;0.45;;
23346;SDS011;36852;45.466;11.066;2023-04-03T02:14:09;0.50;;;0.50;;
23346;SDS011;36852;45.466;11.066;2023-04-03T02:16:37;0.90;;;0.68;;
23346;SDS011;36852;45.466;11.066;2023-04-03T02:19:04;1.45;;;0.40;;
23346;SDS011;36852;45.466;11.066;2023-04-03T02:21:32;0.65;;;0.65;;
23346;SDS011;36852;45.466;11.066;2023-04-03T02:24:00;3.35;;;0.50;;
23346;SDS011;36852;45.466;11.066;2023-04-03T02:26:27;0.80;;;0.50;;
23346;SDS011;36852;45.466;11.066;2023-04-03T02:28:55;6.40;;;0.80;;
23346;SDS011;36852;45.466;11.066;2023-04-03T02:31:23;0.93;;;0.60;;
23346;SDS011;36852;45.466;11.066;2023-04-03T02:33:51;3.85;;;0.65;;
23346;SDS011;36852;45.466;11.066;2023-04-03T02:36:19;1.00;;;0.72;;
23346;SDS011;36852;45.466;11.066;2023-04-03T02:38:48;2.55;;;0.50;;
23346;SDS011;36852;45.466;11.066;2023-04-03T02:41:19;1.57;;;0.60;;
23346;SDS011;36852;45.466;11.066;2023-04-03T02:43:48;1.17;;;0.62;;
23346;SDS011;36852;45.466;11.066;2023-04-03T02:46:17;2.58;;;1.00;;
23346;SDS011;36852;45.466;11.066;2023-04-03T02:48:44;4.00;;;0.88;;
23346;SDS011;36852;45.466;11.066;2023-04-03T02:51:12;1.22;;;0.68;;
23346;SDS011;36852;45.466;11.066;2023-04-03T02:53:39;1.05;;;0.93;;
23346;SDS011;36852;45.466;11.066;2023-04-03T02:56:09;2.87;;;0.82;;
23346;SDS011;36852;45.466;11.066;2023-04-03T02:58:37;1.47;;;0.95;;
23346;SDS011;36852;45.466;11.066;2023-04-03T03:01:06;3.33;;;1.07;;
23346;SDS011;36852;45.466;11.066;2023-04-03T03:03:33;3.40;;;1.00;;
23346;SDS011;36852;45.466;11.066;2023-04-03T03:06:05;3.17;;;1.20;;
23346;SDS011;36852;45.466;11.066;2023-04-03T03:08:39;4.12;;;1.60;;
23346;SDS011;36852;45.466;11.066;2023-04-03T03:11:07;1.95;;;1.40;;
23346;SDS011;36852;45.466;11.066;2023-04-03T03:13:38;2.87;;;1.50;;
23346;SDS011;36852;45.466;11.066;2023-04-03T03:16:06;2.35;;;1.30;;
23346;SDS011;36852;45.466;11.066;2023-04-03T03:18:34;2.35;;;1.60;;
23346;SDS011;36852;45.466;11.066;2023-04-03T03:21:03;2.05;;;1.57;;
23346;SDS011;36852;45.466;11.066;2023-04-03T03:23:34;3.02;;;1.10;;
23346;SDS011;36852;45.466;11.066;2023-04-03T03:26:03;4.05;;;1.60;;
23346;SDS011;36852;45.466;11.066;2023-04-03T03:28:33;2.27;;;1.35;;
23346;SDS011;36852;45.466;11.066;2023-04-03T03:31:04;3.55;;;1.17;;
23346;SDS011;36852;45.466;11.066;2023-04-03T03:33:32;2.50;;;1.00;;
23346;SDS011;36852;45.466;11.066;2023-04-03T03:36:00;1.27;;;0.90;;
23346;SDS011;36852;45.466;11.066;2023-04-03T03:38:28;1.42;;;1.10;;
23346;SDS011;36852;45.466;11.066;2023-04-03T03:40:57;1.75;;;1.00;;
23346;SDS011;36852;45.466;11.066;2023-04-03T03:43:27;1.92;;;1.20;;
23346;SDS011;36852;45.466;11.066;2023-04-03T03:45:55;2.12;;;1.27;;
23346;SDS011;36852;45.466;11.066;2023-04-03T03:48:23;2.58;;;1.07;;
23346;SDS011;36852;45.466;11.066;2023-04-03T03:50:51;2.22;;;1.10;;
23346;SDS011;36852;45.466;11.066;2023-04-03T03:53:21;3.05;;;0.90;;
23346;SDS011;36852;45.466;11.066;2023-04-03T03:55:50;1.20;;;1.05;;
23346;SDS011;36852;45.466;11.066;2023-04-03T04:01:04;4.65;;;1.27;;
23346;SDS011;36852;45.466;11.066;2023-04-03T04:03:35;1.98;;;1.30;;
23346;SDS011;36852;45.466;11.066;2023-04-03T04:06:05;2.25;;;1.00;;
23346;SDS011;36852;45.466;11.066;2023-04-03T04:08:33;1.95;;;1.15;;
23346;SDS011;36852;45.466;11.066;2023-04-03T04:11:01;2.67;;;0.90;;
23346;SDS011;36852;45.466;11.066;2023-04-03T04:13:29;1.90;;;1.05;;
23346;SDS011;36852;45.466;11.066;2023-04-03T04:15:57;1.12;;;1.00;;
23346;SDS011;36852;45.466;11.066;2023-04-03T04:18:25;1.85;;;1.00;;
23346;SDS011;36852;45.466;11.066;2023-04-03T04:20:53;1.50;;;0.90;;
23346;SDS011;36852;45.466;11.066;2023-04-03T04:23:21;1.52;;;0.85;;
23346;SDS011;36852;45.466;11.066;2023-04-03T04:25:50;1.00;;;0.72;;
23346;SDS011;36852;45.466;11.066;2023-04-03T04:28:19;1.65;;;0.82;;
23346;SDS011;36852;45.466;11.066;2023-04-03T04:30:49;0.85;;;0.72;;
23346;SDS011;36852;45.466;11.066;2023-04-03T04:33:20;1.70;;;0.78;;
23346;SDS011;36852;45.466;11.066;2023-04-03T04:35:48;0.95;;;0.70;;
23346;SDS011;36852;45.466;11.066;2023-04-03T04:38:17;1.35;;;0.80;;
23346;SDS011;36852;45.466;11.066;2023-04-03T04:40:45;1.45;;;0.70;;
23346;SDS011;36852;45.466;11.066;2023-04-03T04:43:14;2.12;;;0.90;;
23346;SDS011;36852;45.466;11.066;2023-04-03T04:45:44;2.20;;;0.93;;
23346;SDS011;36852;45.466;11.066;2023-04-03T04:48:13;1.47;;;0.70;;
23346;SDS011;36852;45.466;11.066;2023-04-03T04:50:40;0.95;;;0.80;;
23346;SDS011;36852;45.466;11.066;2023-04-03T04:53:08;2.92;;;0.80;;
23346;SDS011;36852;45.466;11.066;2023-04-03T04:55:36;1.80;;;1.00;;
23346;SDS011;36852;45.466;11.066;2023-04-03T04:58:04;1.17;;;0.70;;
23346;SDS011;36852;45.466;11.066;2023-04-03T05:00:33;1.27;;;0.78;;
23346;SDS011;36852;45.466;11.066;2023-04-03T05:03:01;0.80;;;0.70;;
23346;SDS011;36852;45.466;11.066;2023-04-03T05:05:29;1.00;;;0.78;;
23346;SDS011;36852;45.466;11.066;2023-04-03T05:07:57;0.80;;;0.60;;
23346;SDS011;36852;45.466;11.066;2023-04-03T05:10:25;1.10;;;0.80;;
23346;SDS011;36852;45.466;11.066;2023-04-03T05:12:52;1.50;;;0.93;;
23346;SDS011;36852;45.466;11.066;2023-04-03T05:15:20;0.98;;;0.78;;
23346;SDS011;36852;45.466;11.066;2023-04-03T05:17:48;2.00;;;0.88;;
23346;SDS011;36852;45.466;11.066;2023-04-03T05:20:17;1.00;;;0.50;;
23346;SDS011;36852;45.466;11.066;2023-04-03T05:22:48;0.85;;;0.62;;
23346;SDS011;36852;45.466;11.066;2023-04-03T05:25:16;1.05;;;0.75;;
23346;SDS011;36852;45.466;11.066;2023-04-03T05:27:44;3.33;;;0.70;;
23346;SDS011;36852;45.466;11.066;2023-04-03T05:30:11;3.67;;;1.50;;
23346;SDS011;36852;45.466;11.066;2023-04-03T05:32:40;0.88;;;0.70;;
23346;SDS011;36852;45.466;11.066;2023-04-03T05:35:12;1.20;;;0.70;;
23346;SDS011;36852;45.466;11.066;2023-04-03T05:37:41;0.80;;;0.62;;
23346;SDS011;36852;45.466;11.066;2023-04-03T05:40:09;1.07;;;0.70;;
23346;SDS011;36852;45.466;11.066;2023-04-03T05:42:39;2.55;;;1.35;;
23346;SDS011;36852;45.466;11.066;2023-04-03T05:45:08;2.45;;;1.52;;
23346;SDS011;36852;45.466;11.066;2023-04-03T05:47:36;5.83;;;2.98;;
23346;SDS011;36852;45.466;11.066;2023-04-03T05:50:05;5.15;;;3.62;;
23346;SDS011;36852;45.466;11.066;2023-04-03T05:52:37;5.65;;;3.08;;
23346;SDS011;36852;45.466;11.066;2023-04-03T05:55:07;4.85;;;3.25;;
23346;SDS011;36852;45.466;11.066;2023-04-03T05:57:41;3.50;;;2.67;;
23346;SDS011;36852;45.466;11.066;2023-04-03T06:00:13;2.50;;;1.40;;
23346;SDS011;36852;45.466;11.066;2023-04-03T06:02:44;4.53;;;1.77;;
23346;SDS011;36852;45.466;11.066;2023-04-03T06:05:14;2.92;;;1.65;;
23346;SDS011;36852;45.466;11.066;2023-04-03T06:07:42;4.80;;;1.22;;
23346;SDS011;36852;45.466;11.066;2023-04-03T06:10:11;3.50;;;1.10;;
23346;SDS011;36852;45.466;11.066;2023-04-03T06:12:40;3.67;;;1.05;;
23346;SDS011;36852;45.466;11.066;2023-04-03T06:15:08;1.70;;;1.00;;
23346;SDS011;36852;45.466;11.066;2023-04-03T06:17:39;5.47;;;1.30;;
23346;SDS011;36852;45.466;11.066;2023-04-03T06:20:07;3.45;;;1.20;;
23346;SDS011;36852;45.466;11.066;2023-04-03T06:22:39;2.12;;;1.37;;
23346;SDS011;36852;45.466;11.066;2023-04-03T06:25:10;1.22;;;1.00;;
23346;SDS011;36852;45.466;11.066;2023-04-03T06:27:38;1.55;;;0.93;;
23346;SDS011;36852;45.466;11.066;2023-04-03T06:30:06;11.50;;;3.40;;
23346;SDS011;36852;45.466;11.066;2023-04-03T06:32:35;19.85;;;12.13;;
23346;SDS011;36852;45.466;11.066;2023-04-03T06:35:04;5.90;;;4.00;;
23346;SDS011;36852;45.466;11.066;2023-04-03T06:37:33;2.40;;;1.27;;
23346;SDS011;36852;45.466;11.066;2023-04-03T06:40:00;8.03;;;3.00;;
23346;SDS011;36852;45.466;11.066;2023-04-03T06:42:28;6.03;;;2.92;;
23346;SDS011;36852;45.466;11.066;2023-04-03T06:45:01;6.67;;;2.02;;
23346;SDS011;36852;45.466;11.066;2023-04-03T06:47:30;7.75;;;2.72;;
23346;SDS011;36852;45.466;11.066;2023-04-03T06:49:58;4.83;;;1.55;;
23346;SDS011;36852;45.466;11.066;2023-04-03T06:52:27;2.55;;;1.30;;
23346;SDS011;36852;45.466;11.066;2023-04-03T06:54:55;3.67;;;1.42;;
23346;SDS011;36852;45.466;11.066;2023-04-03T06:57:25;4.72;;;1.75;;
23346;SDS011;36852;45.466;11.066;2023-04-03T06:59:54;3.02;;;1.40;;
23346;SDS011;36852;45.466;11.066;2023-04-03T07:02:22;6.78;;;1.80;;
23346;SDS011;36852;45.466;11.066;2023-04-03T07:04:51;6.47;;;1.52;;
23346;SDS011;36852;45.466;11.066;2023-04-03T07:07:19;2.75;;;1.85;;
23346;SDS011;36852;45.466;11.066;2023-04-03T07:09:47;3.75;;;2.20;;
23346;SDS011;36852;45.466;11.066;2023-04-03T07:12:15;4.85;;;2.10;;
23346;SDS011;36852;45.466;11.066;2023-04-03T07:14:43;5.62;;;3.00;;
23346;SDS011;36852;45.466;11.066;2023-04-03T07:17:11;7.65;;;3.25;;
23346;SDS011;36852;45.466;11.066;2023-04-03T07:19:39;5.95;;;2.87;;
23346;SDS011;36852;45.466;11.066;2023-04-03T07:22:07;4.65;;;1.90;;
23346;SDS011;36852;45.466;11.066;2023-04-03T07:24:41;2.52;;;1.80;;
23346;SDS011;36852;45.466;11.066;2023-04-03T07:27:10;6.72;;;2.40;;
23346;SDS011;36852;45.466;11.066;2023-04-03T07:29:39;7.08;;;1.95;;
23346;SDS011;36852;45.466;11.066;2023-04-03T07:32:08;5.42;;;1.75;;
23346;SDS011;36852;45.466;11.066;2023-04-03T07:34:36;6.97;;;2.10;;
23346;SDS011;36852;45.466;11.066;2023-04-03T07:37:04;5.78;;;1.80;;
23346;SDS011;36852;45.466;11.066;2023-04-03T07:39:33;4.87;;;1.82;;
23346;SDS011;36852;45.466;11.066;2023-04-03T07:42:01;8.75;;;1.85;;
23346;SDS011;36852;45.466;11.066;2023-04-03T07:44:31;6.90;;;2.02;;
23346;SDS011;36852;45.466;11.066;2023-04-03T07:46:59;5.83;;;2.72;;
23346;SDS011;36852;45.466;11.066;2023-04-03T07:49:27;4.58;;;2.20;;
23346;SDS011;36852;45.466;11.066;2023-04-03T07:51:54;4.75;;;2.65;;
23346;SDS011;36852;45.466;11.066;2023-04-03T07:54:23;13.88;;;7.25;;
23346;SDS011;36852;45.466;11.066;2023-04-03T07:56:50;4.80;;;2.92;;
23346;SDS011;36852;45.466;11.066;2023-04-03T07:59:18;3.45;;;1.80;;
23346;SDS011;36852;45.466;11.066;2023-04-03T08:01:46;3.00;;;2.20;;
23346;SDS011;36852;45.466;11.066;2023-04-03T08:04:13;6.35;;;2.37;;
23346;SDS011;36852;45.466;11.066;2023-04-03T08:06:41;4.25;;;2.17;;
23346;SDS011;36852;45.466;11.066;2023-04-03T08:09:12;4.62;;;2.33;;
23346;SDS011;36852;45.466;11.066;2023-04-03T08:11:44;4.53;;;2.05;;
23346;SDS011;36852;45.466;11.066;2023-04-03T08:14:12;3.72;;;1.98;;
23346;SDS011;36852;45.466;11.066;2023-04-03T08:16:44;5.08;;;2.17;;
23346;SDS011;36852;45.466;11.066;2023-04-03T08:19:14;5.17;;;2.10;;
23346;SDS011;36852;45.466;11.066;2023-04-03T08:21:45;7.58;;;2.20;;
23346;SDS011;36852;45.466;11.066;2023-04-03T08:24:14;4.50;;;2.05;;
23346;SDS011;36852;45.466;11.066;2023-04-03T08:26:41;5.83;;;2.27;;
23346;SDS011;36852;45.466;11.066;2023-04-03T08:29:12;5.03;;;2.02;;
23346;SDS011;36852;45.466;11.066;2023-04-03T08:31:40;4.05;;;2.58;;
23346;SDS011;36852;45.466;11.066;2023-04-03T08:34:09;3.72;;;2.35;;
23346;SDS011;36852;45.466;11.066;2023-04-03T08:36:36;3.33;;;2.25;;
23346;SDS011;36852;45.466;11.066;2023-04-03T08:39:04;4.65;;;2.27;;
23346;SDS011;36852;45.466;11.066;2023-04-03T08:41:36;2.90;;;1.67;;
23346;SDS011;36852;45.466;11.066;2023-04-03T08:52:22;6.65;;;2.40;;
23346;SDS011;36852;45.466;11.066;2023-04-03T08:54:59;8.30;;;2.35;;
23346;SDS011;36852;45.466;11.066;2023-04-03T08:57:33;7.17;;;2.80;;
23346;SDS011;36852;45.466;11.066;2023-04-03T09:00:07;5.25;;;2.17;;
23346;SDS011;36852;45.466;11.066;2023-04-03T09:02:45;4.90;;;2.60;;
23346;SDS011;36852;45.466;11.066;2023-04-03T09:07:50;5.55;;;1.82;;
23346;SDS011;36852;45.466;11.066;2023-04-03T09:10:30;5.72;;;2.70;;
23346;SDS011;36852;45.466;11.066;2023-04-03T09:15:43;3.87;;;1.92;;
23346;SDS011;36852;45.466;11.066;2023-04-03T09:23:36;4.85;;;2.37;;
23346;SDS011;36852;45.466;11.066;2023-04-03T09:26:06;6.55;;;2.05;;
23346;SDS011;36852;45.466;11.066;2023-04-03T09:28:38;5.78;;;2.27;;
23346;SDS011;36852;45.466;11.066;2023-04-03T09:31:26;3.50;;;1.90;;
23346;SDS011;36852;45.466;11.066;2023-04-03T09:33:52;7.00;;;2.12;;
23346;SDS011;36852;45.466;11.066;2023-04-03T09:36:40;4.03;;;2.25;;
23346;SDS011;36852;45.466;11.066;2023-04-03T09:39:18;4.50;;;2.67;;
23346;SDS011;36852;45.466;11.066;2023-04-03T09:44:31;6.25;;;2.10;;
23346;SDS011;36852;45.466;11.066;2023-04-03T09:47:23;3.98;;;2.02;;
23346;SDS011;36852;45.466;11.066;2023-04-03T09:52:48;4.85;;;2.00;;
23346;SDS011;36852;45.466;11.066;2023-04-03T09:55:20;4.75;;;2.20;;
23346;SDS011;36852;45.466;11.066;2023-04-03T09:57:51;2.92;;;1.90;;
23346;SDS011;36852;45.466;11.066;2023-04-03T10:02:55;6.78;;;2.12;;
23346;SDS011;36852;45.466;11.066;2023-04-03T10:05:27;4.90;;;1.85;;
23346;SDS011;36852;45.466;11.066;2023-04-03T10:10:46;4.22;;;1.85;;
23346;SDS011;36852;45.466;11.066;2023-04-03T10:13:17;9.65;;;1.90;;
23346;SDS011;36852;45.466;11.066;2023-04-03T10:15:50;5.97;;;2.30;;
23346;SDS011;36852;45.466;11.066;2023-04-03T10:18:41;6.00;;;1.70;;
23346;SDS011;36852;45.466;11.066;2023-04-03T10:21:15;9.10;;;2.02;;
23346;SDS011;36852;45.466;11.066;2023-04-03T10:23:46;4.58;;;1.85;;
23346;SDS011;36852;45.466;11.066;2023-04-03T10:26:41;2.92;;;1.50;;
23346;SDS011;36852;45.466;11.066;2023-04-03T10:34:42;6.10;;;1.95;;
23346;SDS011;36852;45.466;11.066;2023-04-03T10:47:59;7.03;;;1.98;;
23346;SDS011;36852;45.466;11.066;2023-04-03T10:53:01;3.65;;;1.65;;
23346;SDS011;36852;45.466;11.066;2023-04-03T10:58:20;9.80;;;2.02;;
23346;SDS011;36852;45.466;11.066;2023-04-03T11:01:16;7.72;;;2.00;;
23346;SDS011;36852;45.466;11.066;2023-04-03T11:03:46;5.47;;;1.83;;
23346;SDS011;36852;45.466;11.066;2023-04-03T11:06:14;4.83;;;1.90;;
23346;SDS011;36852;45.466;11.066;2023-04-03T11:11:16;5.17;;;2.15;;
23346;SDS011;36852;45.466;11.066;2023-04-03T11:13:50;5.92;;;2.15;;
23346;SDS011;36852;45.466;11.066;2023-04-03T11:16:23;9.50;;;2.02;;
23346;SDS011;36852;45.466;11.066;2023-04-03T11:18:54;5.72;;;2.00;;
23346;SDS011;36852;45.466;11.066;2023-04-03T11:21:41;4.45;;;2.17;;
23346;SDS011;36852;45.466;11.066;2023-04-03T11:24:15;5.97;;;1.67;;
23346;SDS011;36852;45.466;11.066;2023-04-03T11:26:46;8.60;;;2.12;;
23346;SDS011;36852;45.466;11.066;2023-04-03T11:29:18;6.42;;;1.92;;
23346;SDS011;36852;45.466;11.066;2023-04-03T11:34:51;8.18;;;2.67;;
23346;SDS011;36852;45.466;11.066;2023-04-03T11:37:16;7.37;;;2.10;;
23346;SDS011;36852;45.466;11.066;2023-04-03T11:40:06;8.88;;;2.60;;
23346;SDS011;36852;45.466;11.066;2023-04-03T11:42:42;8.10;;;2.50;;
23346;SDS011;36852;45.466;11.066;2023-04-03T11:47:59;6.50;;;2.20;;
23346;SDS011;36852;45.466;11.066;2023-04-03T11:50:37;6.22;;;2.58;;
23346;SDS011;36852;45.466;11.066;2023-04-03T11:58:27;7.53;;;2.52;;
23346;SDS011;36852;45.466;11.066;2023-04-03T12:01:09;4.83;;;2.47;;
23346;SDS011;36852;45.466;11.066;2023-04-03T12:08:48;10.03;;;2.95;;
23346;SDS011;36852;45.466;11.066;2023-04-03T12:18:59;6.25;;;2.40;;
23346;SDS011;36852;45.466;11.066;2023-04-03T12:26:50;7.75;;;2.50;;
23346;SDS011;36852;45.466;11.066;2023-04-03T12:35:24;4.25;;;2.10;;
23346;SDS011;36852;45.466;11.066;2023-04-03T12:46:34;9.85;;;2.60;;
23346;SDS011;36852;45.466;11.066;2023-04-03T12:49:01;8.15;;;2.70;;
23346;SDS011;36852;45.466;11.066;2023-04-03T12:54:04;8.53;;;2.58;;
23346;SDS011;36852;45.466;11.066;2023-04-03T12:56:52;5.30;;;2.35;;
23346;SDS011;36852;45.466;11.066;2023-04-03T12:59:26;9.65;;;2.47;;
23346;SDS011;36852;45.466;11.066;2023-04-03T13:01:56;11.30;;;2.67;;
23346;SDS011;36852;45.466;11.066;2023-04-03T13:04:29;6.85;;;2.52;;
23346;SDS011;36852;45.466;11.066;2023-04-03T13:06:59;13.10;;;3.17;;
23346;SDS011;36852;45.466;11.066;2023-04-03T13:09:30;9.58;;;2.80;;
23346;SDS011;36852;45.466;11.066;2023-04-03T13:12:07;7.08;;;3.02;;
23346;SDS011;36852;45.466;11.066;2023-04-03T13:14:53;11.75;;;2.87;;
23346;SDS011;36852;45.466;11.066;2023-04-03T13:17:23;9.73;;;2.47;;
23346;SDS011;36852;45.466;11.066;2023-04-03T13:19:52;13.28;;;3.25;;
23346;SDS011;36852;45.466;11.066;2023-04-03T13:22:25;13.00;;;3.22;;
23346;SDS011;36852;45.466;11.066;2023-04-03T13:24:58;10.23;;;2.77;;
23346;SDS011;36852;45.466;11.066;2023-04-03T13:27:30;14.50;;;3.60;;
23346;SDS011;36852;45.466;11.066;2023-04-03T13:29:58;10.53;;;2.72;;
23346;SDS011;36852;45.466;11.066;2023-04-03T13:32:29;11.68;;;3.33;;
23346;SDS011;36852;45.466;11.066;2023-04-03T13:34:58;9.00;;;2.70;;
23346;SDS011;36852;45.466;11.066;2023-04-03T13:37:30;6.28;;;2.30;;
23346;SDS011;36852;45.466;11.066;2023-04-03T13:42:40;13.45;;;3.10;;
23346;SDS011;36852;45.466;11.066;2023-04-03T13:48:07;12.20;;;3.40;;
23346;SDS011;36852;45.466;11.066;2023-04-03T13:50:53;8.55;;;2.47;;
23346;SDS011;36852;45.466;11.066;2023-04-03T13:53:44;7.58;;;2.45;;
23346;SDS011;36852;45.466;11.066;2023-04-03T13:59:20;9.70;;;2.70;;
23346;SDS011;36852;45.466;11.066;2023-04-03T14:02:09;8.75;;;2.42;;
23346;SDS011;36852;45.466;11.066;2023-04-03T14:07:14;10.63;;;3.22;;
23346;SDS011;36852;45.466;11.066;2023-04-03T14:09:43;8.08;;;2.12;;
23346;SDS011;36852;45.466;11.066;2023-04-03T14:12:13;7.50;;;3.22;;
23346;SDS011;36852;45.466;11.066;2023-04-03T14:15:03;14.25;;;3.87;;
23346;SDS011;36852;45.466;11.066;2023-04-03T14:17:29;10.00;;;2.85;;
23346;SDS011;36852;45.466;11.066;2023-04-03T14:22:45;10.88;;;2.83;;
23346;SDS011;36852;45.466;11.066;2023-04-03T14:25:14;9.83;;;2.92;;
23346;SDS011;36852;45.466;11.066;2023-04-03T14:27:48;12.50;;;5.62;;
23346;SDS011;36852;45.466;11.066;2023-04-03T14:30:18;7.67;;;2.85;;
23346;SDS011;36852;45.466;11.066;2023-04-03T14:32:47;14.20;;;2.85;;
23346;SDS011;36852;45.466;11.066;2023-04-03T14:35:15;7.95;;;2.33;;
23346;SDS011;36852;45.466;11.066;2023-04-03T14:37:45;11.20;;;2.17;;
23346;SDS011;36852;45.466;11.066;2023-04-03T14:40:17;4.35;;;2.30;;
23346;SDS011;36852;45.466;11.066;2023-04-03T14:42:45;9.83;;;3.27;;
23346;SDS011;36852;45.466;11.066;2023-04-03T14:45:15;5.08;;;2.52;;
23346;SDS011;36852;45.466;11.066;2023-04-03T14:47:46;5.60;;;2.45;;
23346;SDS011;36852;45.466;11.066;2023-04-03T14:50:19;6.60;;;2.20;;
23346;SDS011;36852;45.466;11.066;2023-04-03T14:52:51;8.35;;;2.80;;
23346;SDS011;36852;45.466;11.066;2023-04-03T14:55:22;10.90;;;2.80;;
23346;SDS011;36852;45.466;11.066;2023-04-03T14:57:51;5.10;;;2.10;;
23346;SDS011;36852;45.466;11.066;2023-04-03T15:00:23;8.28;;;2.72;;
23346;SDS011;36852;45.466;11.066;2023-04-03T15:02:50;2.92;;;2.08;;
23346;SDS011;36852;45.466;11.066;2023-04-03T15:05:19;7.37;;;2.90;;
23346;SDS011;36852;45.466;11.066;2023-04-03T15:07:48;13.03;;;3.30;;
23346;SDS011;36852;45.466;11.066;2023-04-03T15:10:22;9.03;;;2.40;;
23346;SDS011;36852;45.466;11.066;2023-04-03T15:12:52;7.20;;;2.70;;
23346;SDS011;36852;45.466;11.066;2023-04-03T15:15:21;7.62;;;2.37;;
23346;SDS011;36852;45.466;11.066;2023-04-03T15:17:51;8.48;;;2.25;;
23346;SDS011;36852;45.466;11.066;2023-04-03T15:20:23;8.33;;;2.35;;
23346;SDS011;36852;45.466;11.066;2023-04-03T15:22:52;9.75;;;2.45;;
23346;SDS011;36852;45.466;11.066;2023-04-03T15:25:24;8.40;;;2.98;;
23346;SDS011;36852;45.466;11.066;2023-04-03T15:27:54;11.57;;;2.72;;
23346;SDS011;36852;45.466;11.066;2023-04-03T15:30:23;8.13;;;2.40;;
23346;SDS011;36852;45.466;11.066;2023-04-03T15:32:52;6.58;;;2.20;;
23346;SDS011;36852;45.466;11.066;2023-04-03T15:35:21;4.53;;;2.52;;
23346;SDS011;36852;45.466;11.066;2023-04-03T15:37:49;10.90;;;3.08;;
23346;SDS011;36852;45.466;11.066;2023-04-03T15:40:18;9.05;;;3.20;;
23346;SDS011;36852;45.466;11.066;2023-04-03T15:45:32;8.25;;;2.50;;
23346;SDS011;36852;45.466;11.066;2023-04-03T15:48:03;5.03;;;2.10;;
23346;SDS011;36852;45.466;11.066;2023-04-03T15:50:33;4.75;;;1.90;;
23346;SDS011;36852;45.466;11.066;2023-04-03T15:53:01;7.67;;;2.00;;
23346;SDS011;36852;45.466;11.066;2023-04-03T15:55:30;7.78;;;2.72;;
23346;SDS011;36852;45.466;11.066;2023-04-03T15:58:03;5.62;;;2.27;;
23346;SDS011;36852;45.466;11.066;2023-04-03T16:00:31;9.13;;;2.60;;
23346;SDS011;36852;45.466;11.066;2023-04-03T16:03:00;7.00;;;2.27;;
23346;SDS011;36852;45.466;11.066;2023-04-03T16:05:33;5.80;;;1.80;;
23346;SDS011;36852;45.466;11.066;2023-04-03T16:08:04;10.75;;;2.22;;
23346;SDS011;36852;45.466;11.066;2023-04-03T16:10:35;7.03;;;1.80;;
23346;SDS011;36852;45.466;11.066;2023-04-03T16:13:04;9.08;;;2.08;;
23346;SDS011;36852;45.466;11.066;2023-04-03T16:15:32;7.53;;;2.62;;
23346;SDS011;36852;45.466;11.066;2023-04-03T16:18:01;5.90;;;1.98;;
23346;SDS011;36852;45.466;11.066;2023-04-03T16:20:30;14.75;;;8.65;;
23346;SDS011;36852;45.466;11.066;2023-04-03T16:22:58;8.48;;;3.58;;
23346;SDS011;36852;45.466;11.066;2023-04-03T16:25:27;6.75;;;4.10;;
23346;SDS011;36852;45.466;11.066;2023-04-03T16:27:55;14.65;;;6.08;;
23346;SDS011;36852;45.466;11.066;2023-04-03T16:30:22;7.15;;;2.60;;
23346;SDS011;36852;45.466;11.066;2023-04-03T16:32:50;8.03;;;2.00;;
23346;SDS011;36852;45.466;11.066;2023-04-03T16:35:18;7.20;;;2.30;;
23346;SDS011;36852;45.466;11.066;2023-04-03T16:37:46;7.95;;;2.40;;
23346;SDS011;36852;45.466;11.066;2023-04-03T16:40:14;2.52;;;2.20;;
23346;SDS011;36852;45.466;11.066;2023-04-03T16:42:42;7.45;;;1.92;;
23346;SDS011;36852;45.466;11.066;2023-04-03T16:45:10;5.65;;;1.87;;
23346;SDS011;36852;45.466;11.066;2023-04-03T16:47:38;6.95;;;1.70;;
23346;SDS011;36852;45.466;11.066;2023-04-03T16:50:06;4.50;;;2.27;;
23346;SDS011;36852;45.466;11.066;2023-04-03T16:55:19;7.90;;;2.35;;
23346;SDS011;36852;45.466;11.066;2023-04-03T16:57:48;4.78;;;1.90;;
23346;SDS011;36852;45.466;11.066;2023-04-03T17:03:04;5.20;;;2.00;;
23346;SDS011;36852;45.466;11.066;2023-04-03T17:05:33;5.80;;;2.15;;